sensor_id;sensor_type;location;lat;lon;timestamp;pressure;altitude;pressure_sealevel;temperature;humidity
9839;BME280;4958;48.150;11.506;2023-04-25T00:01:05;94967.38;;;11.47;59.98
9839;BME280;4958;48.150;11.506;2023-04-25T00:03:42;94976.09;;;11.46;60.28
9839;BME280;4958;48.150;11.506;2023-04-25T00:06:08;94965.59;;;11.48;60.31
9839;BME280;4958;48.150;11.506;2023-04-25T00:08:58;94969.38;;;11.52;60.33
9839;BME280;4958;48.150;11.506;2023-04-25T00:11:54;94968.38;;;11.53;59.95
9839;BME280;4958;48.150;11.506;2023-04-25T00:14:49;94979.84;;;11.57;59.57
9839;BME280;4958;48.150;11.506;2023-04-25T00:17:49;94981.66;;;11.56;60.79
9839;BME280;4958;48.150;11.506;2023-04-25T00:20:21;94984.03;;;11.51;60.20
9839;BME280;4958;48.150;11.506;2023-04-25T00:23:20;94985.63;;;11.52;60.06
9839;BME280;4958;48.150;11.506;2023-04-25T00:26:14;94985.03;;;11.50;59.82
9839;BME280;4958;48.150;11.506;2023-04-25T00:29:03;94991.97;;;11.50;60.05
9839;BME280;4958;48.150;11.506;2023-04-25T00:31:35;94980.66;;;11.51;59.70
9839;BME280;4958;48.150;11.506;2023-04-25T00:34:21;94976.69;;;11.55;59.39
9839;BME280;4958;48.150;11.506;2023-04-25T00:36:51;94973.34;;;11.54;59.69
9839;BME280;4958;48.150;11.506;2023-04-25T00:39:29;94976.91;;;11.53;59.93
9839;BME280;4958;48.150;11.506;2023-04-25T00:42:09;94969.97;;;11.54;59.54
9839;BME280;4958;48.150;11.506;2023-04-25T00:44:48;94970.97;;;11.53;59.94
9839;BME280;4958;48.150;11.506;2023-04-25T00:47:23;94964.78;;;11.47;60.52
9839;BME280;4958;48.150;11.506;2023-04-25T00:50:09;94967.19;;;11.49;60.26
9839;BME280;4958;48.150;11.506;2023-04-25T00:52:47;94970.53;;;11.29;61.18
9839;BME280;4958;48.150;11.506;2023-04-25T00:55:16;94958.84;;;11.33;60.85
9839;BME280;4958;48.150;11.506;2023-04-25T00:57:47;94962.41;;;11.39;60.86
9839;BME280;4958;48.150;11.506;2023-04-25T01:00:44;94961.22;;;11.35;60.79
9839;BME280;4958;48.150;11.506;2023-04-25T01:06:12;94967.38;;;11.34;60.38
9839;BME280;4958;48.150;11.506;2023-04-25T01:09:02;94965.59;;;11.34;60.66
9839;BME280;4958;48.150;11.506;2023-04-25T01:11:50;94969.94;;;11.34;60.69
9839;BME280;4958;48.150;11.506;2023-04-25T01:14:32;94968.13;;;11.21;60.93
9839;BME280;4958;48.150;11.506;2023-04-25T01:17:24;94966.75;;;11.25;61.12
9839;BME280;4958;48.150;11.506;2023-04-25T01:20:16;94956.84;;;11.29;60.29
9839;BME280;4958;48.150;11.506;2023-04-25T01:22:55;94963.59;;;11.30;60.04
9839;BME280;4958;48.150;11.506;2023-04-25T01:25:32;94963.19;;;11.33;60.44
9839;BME280;4958;48.150;11.506;2023-04-25T01:28:15;94961.19;;;11.28;60.40
9839;BME280;4958;48.150;11.506;2023-04-25T01:31:09;94956.44;;;11.25;60.46
9839;BME280;4958;48.150;11.506;2023-04-25T01:33:56;94959.19;;;11.11;61.42
9839;BME280;4958;48.150;11.506;2023-04-25T01:36:50;94949.47;;;11.06;62.06
9839;BME280;4958;48.150;11.506;2023-04-25T01:39:33;94953.47;;;11.15;60.92
9839;BME280;4958;48.150;11.506;2023-04-25T01:42:22;94951.25;;;11.19;60.70
9839;BME280;4958;48.150;11.506;2023-04-25T01:45:06;94957.00;;;11.21;60.07
9839;BME280;4958;48.150;11.506;2023-04-25T01:48:15;94949.47;;;11.19;60.01
9839;BME280;4958;48.150;11.506;2023-04-25T01:50:51;94948.09;;;11.17;60.07
9839;BME280;4958;48.150;11.506;2023-04-25T01:53:22;94945.50;;;11.10;60.32
9839;BME280;4958;48.150;11.506;2023-04-25T01:55:56;94951.28;;;11.12;60.27
9839;BME280;4958;48.150;11.506;2023-04-25T01:58:50;94955.63;;;11.12;59.87
9839;BME280;4958;48.150;11.506;2023-04-25T02:01:42;94950.47;;;11.12;59.70
9839;BME280;4958;48.150;11.506;2023-04-25T02:04:34;94952.22;;;11.04;60.37
9839;BME280;4958;48.150;11.506;2023-04-25T02:07:19;94939.16;;;11.06;60.37
9839;BME280;4958;48.150;11.506;2023-04-25T02:09:54;94939.13;;;10.93;61.23
9839;BME280;4958;48.150;11.506;2023-04-25T02:12:32;94948.25;;;10.95;61.01
9839;BME280;4958;48.150;11.506;2023-04-25T02:15:18;94946.25;;;10.97;60.64
9839;BME280;4958;48.150;11.506;2023-04-25T02:18:06;94949.44;;;10.99;60.93
9839;BME280;4958;48.150;11.506;2023-04-25T02:20:57;94960.34;;;11.01;59.96
9839;BME280;4958;48.150;11.506;2023-04-25T02:23:29;94948.25;;;11.02;59.80
9839;BME280;4958;48.150;11.506;2023-04-25T02:26:26;94943.50;;;11.05;59.70
9839;BME280;4958;48.150;11.506;2023-04-25T02:28:59;94941.13;;;11.04;59.72
9839;BME280;4958;48.150;11.506;2023-04-25T02:31:39;94940.75;;;11.07;59.50
9839;BME280;4958;48.150;11.506;2023-04-25T02:34:11;94941.91;;;11.04;59.49
9839;BME280;4958;48.150;11.506;2023-04-25T02:37:00;94944.09;;;11.01;59.34
9839;BME280;4958;48.150;11.506;2023-04-25T02:42:33;94939.72;;;10.88;59.54
9839;BME280;4958;48.150;11.506;2023-04-25T02:45:23;94945.66;;;10.89;59.13
9839;BME280;4958;48.150;11.506;2023-04-25T02:47:58;94940.13;;;10.92;59.25
9839;BME280;4958;48.150;11.506;2023-04-25T02:50:33;94942.09;;;10.90;58.64
9839;BME280;4958;48.150;11.506;2023-04-25T02:53:07;94945.66;;;10.89;58.86
9839;BME280;4958;48.150;11.506;2023-04-25T02:55:52;94935.97;;;10.91;58.72
9839;BME280;4958;48.150;11.506;2023-04-25T02:58:49;94949.25;;;10.94;58.94
9839;BME280;4958;48.150;11.506;2023-04-25T03:01:39;94945.28;;;10.92;58.70
9839;BME280;4958;48.150;11.506;2023-04-25T03:04:23;94941.91;;;10.98;58.20
9839;BME280;4958;48.150;11.506;2023-04-25T03:06:57;94941.66;;;10.73;58.54
9839;BME280;4958;48.150;11.506;2023-04-25T03:09:40;94938.00;;;10.54;59.41
9839;BME280;4958;48.150;11.506;2023-04-25T03:12:20;94939.59;;;10.55;59.80
9839;BME280;4958;48.150;11.506;2023-04-25T03:14:54;94932.69;;;10.56;60.11
9839;BME280;4958;48.150;11.506;2023-04-25T03:17:30;94931.28;;;10.60;60.77
9839;BME280;4958;48.150;11.506;2023-04-25T03:20:34;94921.41;;;10.63;60.87
9839;BME280;4958;48.150;11.506;2023-04-25T03:23:08;94923.75;;;10.52;60.44
9839;BME280;4958;48.150;11.506;2023-04-25T03:26:00;94918.38;;;10.47;60.56
9839;BME280;4958;48.150;11.506;2023-04-25T03:28:47;94914.38;;;10.37;60.75
9839;BME280;4958;48.150;11.506;2023-04-25T03:31:25;94920.53;;;10.43;60.82
9839;BME280;4958;48.150;11.506;2023-04-25T03:36:46;94928.44;;;10.35;60.76
9839;BME280;4958;48.150;11.506;2023-04-25T03:39:37;94927.63;;;10.34;61.38
9839;BME280;4958;48.150;11.506;2023-04-25T03:42:11;94924.50;;;10.11;61.40
9839;BME280;4958;48.150;11.506;2023-04-25T03:45:04;94918.25;;;10.20;61.05
9839;BME280;4958;48.150;11.506;2023-04-25T03:47:54;94923.75;;;10.17;61.39
9839;BME280;4958;48.150;11.506;2023-04-25T03:50:22;94922.69;;;10.05;61.78
9839;BME280;4958;48.150;11.506;2023-04-25T03:53:03;94925.25;;;10.05;62.21
9839;BME280;4958;48.150;11.506;2023-04-25T03:55:39;94922.72;;;10.12;61.75
9839;BME280;4958;48.150;11.506;2023-04-25T03:58:06;94922.97;;;10.17;62.10
9839;BME280;4958;48.150;11.506;2023-04-25T04:00:33;94925.19;;;10.26;62.00
9839;BME280;4958;48.150;11.506;2023-04-25T04:03:00;94926.97;;;10.26;61.90
9839;BME280;4958;48.150;11.506;2023-04-25T04:08:49;94927.53;;;10.21;62.18
9839;BME280;4958;48.150;11.506;2023-04-25T04:11:29;94924.63;;;10.31;62.18
9839;BME280;4958;48.150;11.506;2023-04-25T04:13:59;94923.22;;;10.28;61.99
9839;BME280;4958;48.150;11.506;2023-04-25T04:16:31;94922.66;;;10.33;61.98
9839;BME280;4958;48.150;11.506;2023-04-25T04:19:00;94935.53;;;10.39;61.74
9839;BME280;4958;48.150;11.506;2023-04-25T04:21:30;94928.53;;;10.20;62.43
9839;BME280;4958;48.150;11.506;2023-04-25T04:23:57;94918.16;;;10.07;62.82
9839;BME280;4958;48.150;11.506;2023-04-25T04:26:25;94910.84;;;10.11;62.78
9839;BME280;4958;48.150;11.506;2023-04-25T04:28:52;94916.19;;;10.09;63.22
9839;BME280;4958;48.150;11.506;2023-04-25T04:31:19;94920.75;;;10.14;62.95
9839;BME280;4958;48.150;11.506;2023-04-25T04:33:46;94923.75;;;10.17;62.86
9839;BME280;4958;48.150;11.506;2023-04-25T04:36:13;94924.75;;;10.16;63.45
9839;BME280;4958;48.150;11.506;2023-04-25T04:38:42;94931.50;;;10.24;63.08
9839;BME280;4958;48.150;11.506;2023-04-25T04:41:08;94943.72;;;10.15;63.73
9839;BME280;4958;48.150;11.506;2023-04-25T04:43:35;94938.16;;;10.12;63.91
9839;BME280;4958;48.150;11.506;2023-04-25T04:46:02;94942.50;;;10.11;63.76
9839;BME280;4958;48.150;11.506;2023-04-25T04:48:29;94936.81;;;10.16;63.96
9839;BME280;4958;48.150;11.506;2023-04-25T04:50:57;94937.25;;;10.19;63.80
9839;BME280;4958;48.150;11.506;2023-04-25T04:53:24;94932.72;;;10.28;63.20
9839;BME280;4958;48.150;11.506;2023-04-25T04:55:52;94933.94;;;10.32;63.31
9839;BME280;4958;48.150;11.506;2023-04-25T04:58:18;94929.22;;;10.35;63.35
9839;BME280;4958;48.150;11.506;2023-04-25T05:00:45;94924.88;;;10.36;63.29
9839;BME280;4958;48.150;11.506;2023-04-25T05:03:11;94918.56;;;10.38;63.87
9839;BME280;4958;48.150;11.506;2023-04-25T05:05:38;94923.66;;;10.32;65.17
9839;BME280;4958;48.150;11.506;2023-04-25T05:08:05;94923.28;;;10.35;63.81
9839;BME280;4958;48.150;11.506;2023-04-25T05:10:31;94933.72;;;10.27;64.29
9839;BME280;4958;48.150;11.506;2023-04-25T05:12:59;94929.00;;;10.30;63.65
9839;BME280;4958;48.150;11.506;2023-04-25T05:15:25;94924.03;;;10.29;64.05
9839;BME280;4958;48.150;11.506;2023-04-25T05:17:52;94928.75;;;10.19;64.26
9839;BME280;4958;48.150;11.506;2023-04-25T05:20:18;94924.94;;;10.15;64.69
9839;BME280;4958;48.150;11.506;2023-04-25T05:22:45;94926.59;;;10.01;65.53
9839;BME280;4958;48.150;11.506;2023-04-25T05:25:11;94929.19;;;10.01;66.46
9839;BME280;4958;48.150;11.506;2023-04-25T05:27:37;94925.78;;;9.94;65.90
9839;BME280;4958;48.150;11.506;2023-04-25T05:30:07;94924.38;;;9.91;66.04
9839;BME280;4958;48.150;11.506;2023-04-25T05:32:34;94919.91;;;10.00;65.94
9839;BME280;4958;48.150;11.506;2023-04-25T05:35:03;94929.00;;;10.02;66.14
9839;BME280;4958;48.150;11.506;2023-04-25T05:37:31;94929.38;;;9.99;66.46
9839;BME280;4958;48.150;11.506;2023-04-25T05:39:58;94920.09;;;9.98;67.12
9839;BME280;4958;48.150;11.506;2023-04-25T05:42:25;94922.06;;;10.03;66.80
9839;BME280;4958;48.150;11.506;2023-04-25T05:44:51;94924.47;;;10.04;66.44
9839;BME280;4958;48.150;11.506;2023-04-25T05:47:19;94922.47;;;10.00;66.81
9839;BME280;4958;48.150;11.506;2023-04-25T05:49:45;94923.47;;;10.05;67.09
9839;BME280;4958;48.150;11.506;2023-04-25T05:52:12;94931.06;;;9.86;67.52
9839;BME280;4958;48.150;11.506;2023-04-25T05:54:38;94940.09;;;9.75;67.78
9839;BME280;4958;48.150;11.506;2023-04-25T05:57:04;94956.97;;;9.56;69.82
9839;BME280;4958;48.150;11.506;2023-04-25T05:59:31;94956.09;;;9.49;71.63
9839;BME280;4958;48.150;11.506;2023-04-25T06:01:57;94956.72;;;9.30;72.06
9839;BME280;4958;48.150;11.506;2023-04-25T06:04:25;94949.56;;;9.25;73.40
9839;BME280;4958;48.150;11.506;2023-04-25T06:06:51;94950.75;;;9.23;74.80
9839;BME280;4958;48.150;11.506;2023-04-25T06:09:18;94943.84;;;9.23;75.23
9839;BME280;4958;48.150;11.506;2023-04-25T06:11:47;94946.78;;;9.20;75.92
9839;BME280;4958;48.150;11.506;2023-04-25T06:14:13;94934.16;;;9.25;74.67
9839;BME280;4958;48.150;11.506;2023-04-25T06:16:40;94934.59;;;9.29;76.36
9839;BME280;4958;48.150;11.506;2023-04-25T06:19:06;94929.25;;;9.30;78.41
9839;BME280;4958;48.150;11.506;2023-04-25T06:21:34;94932.69;;;9.38;78.09
9839;BME280;4958;48.150;11.506;2023-04-25T06:24:00;94928.44;;;9.51;77.53
9839;BME280;4958;48.150;11.506;2023-04-25T06:26:27;94932.69;;;9.65;76.24
9839;BME280;4958;48.150;11.506;2023-04-25T06:28:53;94930.25;;;9.79;76.08
9839;BME280;4958;48.150;11.506;2023-04-25T06:31:21;94931.44;;;9.83;75.46
9839;BME280;4958;48.150;11.506;2023-04-25T06:33:47;94927.88;;;9.84;75.75
9839;BME280;4958;48.150;11.506;2023-04-25T06:36:14;94928.69;;;9.84;75.96
9839;BME280;4958;48.150;11.506;2023-04-25T06:38:42;94929.66;;;9.83;76.71
9839;BME280;4958;48.150;11.506;2023-04-25T06:41:08;94934.66;;;9.91;76.39
9839;BME280;4958;48.150;11.506;2023-04-25T06:43:34;94932.75;;;10.00;77.49
9839;BME280;4958;48.150;11.506;2023-04-25T06:46:01;94938.97;;;10.12;77.93
9839;BME280;4958;48.150;11.506;2023-04-25T06:48:27;94932.72;;;10.28;76.72
9839;BME280;4958;48.150;11.506;2023-04-25T06:50:54;94927.06;;;10.39;77.41
9839;BME280;4958;48.150;11.506;2023-04-25T06:53:21;94926.13;;;10.60;76.52
9839;BME280;4958;48.150;11.506;2023-04-25T06:55:49;94931.50;;;10.65;75.65
9839;BME280;4958;48.150;11.506;2023-04-25T06:58:16;94929.34;;;10.68;76.23
9839;BME280;4958;48.150;11.506;2023-04-25T07:00:42;94934.03;;;10.52;75.02
9839;BME280;4958;48.150;11.506;2023-04-25T07:03:08;94933.00;;;10.46;73.93
9839;BME280;4958;48.150;11.506;2023-04-25T07:05:35;94929.63;;;10.39;75.21
9839;BME280;4958;48.150;11.506;2023-04-25T07:08:02;94935.59;;;10.46;74.48
9839;BME280;4958;48.150;11.506;2023-04-25T07:10:28;94940.31;;;10.43;75.47
9839;BME280;4958;48.150;11.506;2023-04-25T07:12:56;94930.66;;;10.51;76.59
9839;BME280;4958;48.150;11.506;2023-04-25T07:15:23;94918.41;;;10.60;75.38
9839;BME280;4958;48.150;11.506;2023-04-25T07:17:50;94922.38;;;10.56;74.19
9839;BME280;4958;48.150;11.506;2023-04-25T07:20:16;94927.34;;;10.64;74.60
9839;BME280;4958;48.150;11.506;2023-04-25T07:22:43;94927.41;;;10.77;74.16
9839;BME280;4958;48.150;11.506;2023-04-25T07:25:09;94921.28;;;10.85;72.82
9839;BME280;4958;48.150;11.506;2023-04-25T07:27:36;94918.31;;;10.88;73.02
9839;BME280;4958;48.150;11.506;2023-04-25T07:30:05;94921.50;;;10.90;71.95
9839;BME280;4958;48.150;11.506;2023-04-25T07:32:32;94913.00;;;10.96;72.49
9839;BME280;4958;48.150;11.506;2023-04-25T07:34:58;94914.59;;;11.10;72.08
9839;BME280;4958;48.150;11.506;2023-04-25T07:37:24;94911.03;;;11.18;70.98
9839;BME280;4958;48.150;11.506;2023-04-25T07:39:51;94912.84;;;11.30;71.24
9839;BME280;4958;48.150;11.506;2023-04-25T07:42:18;94905.13;;;11.50;70.42
9839;BME280;4958;48.150;11.506;2023-04-25T07:44:44;94907.50;;;11.71;69.64
9839;BME280;4958;48.150;11.506;2023-04-25T07:47:12;94909.44;;;11.96;69.89
9839;BME280;4958;48.150;11.506;2023-04-25T07:49:39;94910.03;;;12.11;67.60
9839;BME280;4958;48.150;11.506;2023-04-25T07:52:05;94916.75;;;12.25;66.14
9839;BME280;4958;48.150;11.506;2023-04-25T07:54:32;94902.16;;;12.51;65.30
9839;BME280;4958;48.150;11.506;2023-04-25T07:56:58;94909.59;;;12.72;63.72
9839;BME280;4958;48.150;11.506;2023-04-25T07:59:25;94912.34;;;12.84;63.38
9839;BME280;4958;48.150;11.506;2023-04-25T08:01:51;94905.47;;;13.02;63.13
9839;BME280;4958;48.150;11.506;2023-04-25T08:04:19;94898.47;;;13.16;61.92
9839;BME280;4958;48.150;11.506;2023-04-25T08:06:46;94900.69;;;13.37;60.82
9839;BME280;4958;48.150;11.506;2023-04-25T08:09:13;94887.59;;;13.82;60.90
9839;BME280;4958;48.150;11.506;2023-04-25T08:11:40;94886.66;;;13.76;59.61
9839;BME280;4958;48.150;11.506;2023-04-25T08:14:07;94901.00;;;13.47;60.03
9839;BME280;4958;48.150;11.506;2023-04-25T08:16:33;94897.25;;;13.19;61.43
9839;BME280;4958;48.150;11.506;2023-04-25T08:19:00;94899.06;;;13.18;61.19
9839;BME280;4958;48.150;11.506;2023-04-25T08:21:28;94905.28;;;13.04;61.13
9839;BME280;4958;48.150;11.506;2023-04-25T08:23:54;94901.44;;;12.82;61.04
9839;BME280;4958;48.150;11.506;2023-04-25T08:26:22;94905.09;;;12.61;63.23
9839;BME280;4958;48.150;11.506;2023-04-25T08:28:49;94913.31;;;12.44;61.73
9839;BME280;4958;48.150;11.506;2023-04-25T08:31:17;94911.91;;;12.49;62.56
9839;BME280;4958;48.150;11.506;2023-04-25T08:33:46;94907.81;;;12.72;59.60
9839;BME280;4958;48.150;11.506;2023-04-25T08:36:16;94905.78;;;13.26;57.65
9839;BME280;4958;48.150;11.506;2023-04-25T08:38:50;94907.56;;;13.75;55.34
9839;BME280;4958;48.150;11.506;2023-04-25T08:44:58;94909.44;;;14.66;52.81
9839;BME280;4958;48.150;11.506;2023-04-25T08:47:40;94920.63;;;14.96;52.82
9839;BME280;4958;48.150;11.506;2023-04-25T08:50:34;94910.19;;;14.84;48.45
9839;BME280;4958;48.150;11.506;2023-04-25T08:53:33;94917.59;;;14.99;50.03
9839;BME280;4958;48.150;11.506;2023-04-25T08:56:12;94915.38;;;14.84;47.54
9839;BME280;4958;48.150;11.506;2023-04-25T08:59:06;94898.69;;;15.22;48.22
9839;BME280;4958;48.150;11.506;2023-04-25T09:01:56;94909.44;;;15.56;47.28
9839;BME280;4958;48.150;11.506;2023-04-25T09:04:50;94905.88;;;15.50;45.76
9839;BME280;4958;48.150;11.506;2023-04-25T09:11:12;94895.06;;;16.35;46.32
9839;BME280;4958;48.150;11.506;2023-04-25T09:13:59;94906.50;;;15.99;46.36
9839;BME280;4958;48.150;11.506;2023-04-25T09:19:36;94908.28;;;14.80;47.75
9839;BME280;4958;48.150;11.506;2023-04-25T09:22:25;94910.81;;;14.98;47.65
9839;BME280;4958;48.150;11.506;2023-04-25T09:25:14;94916.19;;;15.15;48.42
9839;BME280;4958;48.150;11.506;2023-04-25T09:28:13;94917.81;;;14.98;47.96
9839;BME280;4958;48.150;11.506;2023-04-25T09:31:32;94922.47;;;14.77;47.43
9839;BME280;4958;48.150;11.506;2023-04-25T09:35:45;94921.13;;;14.57;47.57
9839;BME280;4958;48.150;11.506;2023-04-25T09:37:27;94918.41;;;14.08;47.18
9839;BME280;4958;48.150;11.506;2023-04-25T09:39:58;94915.16;;;13.95;47.04
9839;BME280;4958;48.150;11.506;2023-04-25T09:42:33;94915.31;;;14.00;48.43
9839;BME280;4958;48.150;11.506;2023-04-25T09:48:37;94925.53;;;14.13;47.77
9839;BME280;4958;48.150;11.506;2023-04-25T09:51:14;94933.88;;;14.15;48.47
9839;BME280;4958;48.150;11.506;2023-04-25T09:53:57;94932.25;;;14.75;46.65
9839;BME280;4958;48.150;11.506;2023-04-25T09:56:44;94931.38;;;14.63;46.55
9839;BME280;4958;48.150;11.506;2023-04-25T10:02:33;94919.28;;;14.39;46.89
9839;BME280;4958;48.150;11.506;2023-04-25T10:05:13;94925.84;;;14.23;46.69
9839;BME280;4958;48.150;11.506;2023-04-25T10:10:42;94926.84;;;15.07;45.76
9839;BME280;4958;48.150;11.506;2023-04-25T10:13:11;94907.97;;;15.83;45.29
9839;BME280;4958;48.150;11.506;2023-04-25T10:15:57;94909.78;;;15.82;44.96
9839;BME280;4958;48.150;11.506;2023-04-25T10:18:30;94904.38;;;15.42;43.61
9839;BME280;4958;48.150;11.506;2023-04-25T10:21:21;94905.81;;;15.15;43.67
9839;BME280;4958;48.150;11.506;2023-04-25T10:24:05;94903.22;;;14.85;44.62
9839;BME280;4958;48.150;11.506;2023-04-25T10:26:38;94918.59;;;14.50;45.75
9839;BME280;4958;48.150;11.506;2023-04-25T10:29:25;94922.56;;;14.28;46.46
9839;BME280;4958;48.150;11.506;2023-04-25T10:31:57;94933.06;;;13.96;48.88
9839;BME280;4958;48.150;11.506;2023-04-25T10:34:42;94926.41;;;13.57;49.12
9839;BME280;4958;48.150;11.506;2023-04-25T10:37:16;94939.81;;;13.09;47.01
9839;BME280;4958;48.150;11.506;2023-04-25T10:39:51;94941.59;;;12.71;47.00
9839;BME280;4958;48.150;11.506;2023-04-25T10:42:46;94958.97;;;12.44;47.76
9839;BME280;4958;48.150;11.506;2023-04-25T10:45:52;94951.47;;;12.29;48.46
9839;BME280;4958;48.150;11.506;2023-04-25T10:48:35;94958.59;;;12.34;49.49
9839;BME280;4958;48.150;11.506;2023-04-25T10:51:27;94965.94;;;12.43;50.05
9839;BME280;4958;48.150;11.506;2023-04-25T10:54:25;94966.09;;;12.55;51.25
9839;BME280;4958;48.150;11.506;2023-04-25T10:57:26;94977.22;;;12.56;52.94
9839;BME280;4958;48.150;11.506;2023-04-25T11:05:57;94984.75;;;12.57;53.24
9839;BME280;4958;48.150;11.506;2023-04-25T11:09:26;94992.28;;;12.65;53.61
9839;BME280;4958;48.150;11.506;2023-04-25T11:12:30;94995.03;;;12.77;53.40
9839;BME280;4958;48.150;11.506;2023-04-25T11:15:18;94996.34;;;12.93;53.21
9839;BME280;4958;48.150;11.506;2023-04-25T11:18:32;95004.59;;;13.14;52.79
9839;BME280;4958;48.150;11.506;2023-04-25T11:24:04;95024.56;;;12.94;50.93
9839;BME280;4958;48.150;11.506;2023-04-25T11:27:20;95013.25;;;12.95;52.24
9839;BME280;4958;48.150;11.506;2023-04-25T11:30:16;95009.78;;;12.70;51.55
9839;BME280;4958;48.150;11.506;2023-04-25T11:36:05;95013.91;;;12.71;54.41
9839;BME280;4958;48.150;11.506;2023-04-25T11:39:10;95022.25;;;12.79;55.04
9839;BME280;4958;48.150;11.506;2023-04-25T11:41:58;95021.16;;;12.42;53.28
9839;BME280;4958;48.150;11.506;2023-04-25T11:44:43;95034.69;;;12.31;55.03
9839;BME280;4958;48.150;11.506;2023-04-25T11:47:43;95038.06;;;11.99;59.08
9839;BME280;4958;48.150;11.506;2023-04-25T11:50:24;95048.75;;;11.76;62.91
9839;BME280;4958;48.150;11.506;2023-04-25T11:53:05;95051.88;;;11.65;62.99
9839;BME280;4958;48.150;11.506;2023-04-25T11:56:18;95058.56;;;11.39;63.52
9839;BME280;4958;48.150;11.506;2023-04-25T11:59:43;95063.94;;;10.90;63.89
9839;BME280;4958;48.150;11.506;2023-04-25T12:05:34;95060.09;;;10.80;63.75
9839;BME280;4958;48.150;11.506;2023-04-25T12:08:16;95062.16;;;10.97;64.36
9839;BME280;4958;48.150;11.506;2023-04-25T12:11:17;95073.53;;;11.10;65.18
9839;BME280;4958;48.150;11.506;2023-04-25T12:14:28;95066.88;;;11.35;65.16
9839;BME280;4958;48.150;11.506;2023-04-25T12:20:33;95070.66;;;11.39;63.81
9839;BME280;4958;48.150;11.506;2023-04-25T12:23:49;95071.13;;;11.08;62.66
9839;BME280;4958;48.150;11.506;2023-04-25T12:30:32;95070.78;;;11.18;64.75
9839;BME280;4958;48.150;11.506;2023-04-25T12:32:52;95065.09;;;11.35;64.42
9839;BME280;4958;48.150;11.506;2023-04-25T12:35:45;95076.63;;;11.46;64.40
9839;BME280;4958;48.150;11.506;2023-04-25T12:42:15;95070.03;;;11.37;62.45
9839;BME280;4958;48.150;11.506;2023-04-25T12:48:42;95076.03;;;11.44;65.04
9839;BME280;4958;48.150;11.506;2023-04-25T12:54:20;95088.78;;;11.11;65.23
9839;BME280;4958;48.150;11.506;2023-04-25T12:57:03;95093.34;;;11.09;65.32
9839;BME280;4958;48.150;11.506;2023-04-25T12:59:50;95097.50;;;11.10;65.90
9839;BME280;4958;48.150;11.506;2023-04-25T13:02:42;95101.31;;;11.14;68.32
9839;BME280;4958;48.150;11.506;2023-04-25T13:06:03;95102.91;;;11.22;68.98
9839;BME280;4958;48.150;11.506;2023-04-25T13:09:04;95102.94;;;11.28;68.33
9839;BME280;4958;48.150;11.506;2023-04-25T13:11:47;95111.00;;;11.19;69.07
9839;BME280;4958;48.150;11.506;2023-04-25T13:14:45;95111.19;;;11.11;71.07
9839;BME280;4958;48.150;11.506;2023-04-25T13:17:37;95113.22;;;11.22;70.56
9839;BME280;4958;48.150;11.506;2023-04-25T13:21:44;95103.53;;;11.30;70.51
9839;BME280;4958;48.150;11.506;2023-04-25T13:27:23;95121.91;;;11.14;71.49
9839;BME280;4958;48.150;11.506;2023-04-25T13:30:11;95119.91;;;11.10;71.75
9839;BME280;4958;48.150;11.506;2023-04-25T13:32:43;95119.84;;;11.03;72.51
9839;BME280;4958;48.150;11.506;2023-04-25T13:35:20;95129.69;;;10.86;71.36
9839;BME280;4958;48.150;11.506;2023-04-25T13:37:59;95130.41;;;10.73;73.71
9839;BME280;4958;48.150;11.506;2023-04-25T13:40:37;95137.88;;;10.68;73.95
9839;BME280;4958;48.150;11.506;2023-04-25T13:43:11;95139.31;;;10.78;72.73
9839;BME280;4958;48.150;11.506;2023-04-25T13:48:24;95139.09;;;10.72;71.92
9839;BME280;4958;48.150;11.506;2023-04-25T13:50:50;95147.47;;;10.81;72.74
9839;BME280;4958;48.150;11.506;2023-04-25T13:53:16;95146.66;;;10.81;75.41
9839;BME280;4958;48.150;11.506;2023-04-25T13:55:45;95152.72;;;10.94;75.23
9839;BME280;4958;48.150;11.506;2023-04-25T13:58:13;95142.97;;;10.90;74.44
9839;BME280;4958;48.150;11.506;2023-04-25T14:00:39;95152.19;;;10.78;74.59
9839;BME280;4958;48.150;11.506;2023-04-25T14:03:08;95160.94;;;10.77;73.00
9839;BME280;4958;48.150;11.506;2023-04-25T14:05:35;95155.53;;;10.71;72.62
9839;BME280;4958;48.150;11.506;2023-04-25T14:08:09;95154.38;;;10.74;74.65
9839;BME280;4958;48.150;11.506;2023-04-25T14:10:36;95167.25;;;10.74;74.81
9839;BME280;4958;48.150;11.506;2023-04-25T14:13:03;95158.84;;;10.65;74.11
9839;BME280;4958;48.150;11.506;2023-04-25T14:15:32;95164.78;;;10.66;74.74
9839;BME280;4958;48.150;11.506;2023-04-25T14:17:59;95160.13;;;10.76;75.24
9839;BME280;4958;48.150;11.506;2023-04-25T14:20:25;95164.84;;;10.72;73.00
9839;BME280;4958;48.150;11.506;2023-04-25T14:22:52;95161.91;;;10.76;72.62
9839;BME280;4958;48.150;11.506;2023-04-25T14:25:19;95162.50;;;10.78;78.11
9839;BME280;4958;48.150;11.506;2023-04-25T14:27:46;95158.66;;;10.95;76.26
9839;BME280;4958;48.150;11.506;2023-04-25T14:30:15;95155.16;;;11.09;73.85
9839;BME280;4958;48.150;11.506;2023-04-25T14:32:43;95161.75;;;11.18;74.34
9839;BME280;4958;48.150;11.506;2023-04-25T14:35:15;95160.81;;;11.26;73.82
9839;BME280;4958;48.150;11.506;2023-04-25T14:37:43;95167.19;;;11.36;72.98
9839;BME280;4958;48.150;11.506;2023-04-25T14:40:10;95165.25;;;11.45;73.87
9839;BME280;4958;48.150;11.506;2023-04-25T14:42:40;95167.25;;;11.50;72.71
9839;BME280;4958;48.150;11.506;2023-04-25T14:45:08;95164.47;;;11.45;71.60
9839;BME280;4958;48.150;11.506;2023-04-25T14:47:36;95170.75;;;11.29;70.81
9839;BME280;4958;48.150;11.506;2023-04-25T14:50:11;95173.88;;;11.24;71.90
9839;BME280;4958;48.150;11.506;2023-04-25T14:52:38;95181.00;;;11.22;72.33
9839;BME280;4958;48.150;11.506;2023-04-25T14:55:04;95167.09;;;11.17;68.95
9839;BME280;4958;48.150;11.506;2023-04-25T14:57:32;95173.34;;;11.35;69.56
9839;BME280;4958;48.150;11.506;2023-04-25T15:00:23;95171.75;;;11.34;70.08
9839;BME280;4958;48.150;11.506;2023-04-25T15:02:50;95178.72;;;11.06;68.62
9839;BME280;4958;48.150;11.506;2023-04-25T15:05:49;95176.41;;;10.83;69.78
9839;BME280;4958;48.150;11.506;2023-04-25T15:08:40;95182.69;;;10.74;70.02
9839;BME280;4958;48.150;11.506;2023-04-25T15:11:09;95181.19;;;10.86;70.01
9839;BME280;4958;48.150;11.506;2023-04-25T15:13:50;95191.25;;;11.09;70.02
9839;BME280;4958;48.150;11.506;2023-04-25T15:17:10;95197.06;;;11.24;71.95
9839;BME280;4958;48.150;11.506;2023-04-25T15:19:52;95198.66;;;11.25;70.98